Flight Number: EUR3087 Duration: 11:30
Departure: Bangkok Suvarnabhumi (VTBS) at 06:30 Distance: 5167 Nm
Arrival: Gatwick Airport (EGKK) at 18:00 Equipment: B747

Weather Information
Chon Buri, Thailand (VTBS) 13-22N 100-59E 2M Nov 19, 2018 - 05:00 PM EST / 2018.11.19 2200 UTC
Wind: from the N (350 degrees) at 2 MPH (2 KT):0
Visibility: greater than 7 mile(s):0
Sky conditions: partly cloudy Temperature: 77 F (25 C) Dew Point: 73 F (23 C) Relative Humidity: 88% Pressure (altimeter): 29.88 in. Hg (1012 hPa)
ob: VTBS 192200Z 35002KT 9999 FEW030 SCT050 25/23 Q1012 NOSIG cycle: 22
Sunrise: 23:21 Sunset: 10:43 (UTC)

London / Gatwick Airport, United Kingdom (EGKK) 51-09N 000-11W 0M Nov 19, 2018 - 04:50 PM EST / 2018.11.19 2150 UTC
Wind: from the NNE (030 degrees) at 10 MPH (9 KT) (direction variable):0
Visibility: greater than 7 mile(s):0
Sky conditions: mostly clear Temperature: 39 F (4 C) Dew Point: 37 F (3 C) Relative Humidity: 93% Pressure (altimeter): 29.94 in. Hg (1014 hPa)
ob: EGKK 192150Z 03009KT 360V070 9999 FEW037 04/03 Q1014 cycle: 22
Sunrise: 07:29 Sunset: 16:03 (UTC)

TAF:2018/11/19 18:09 TAF EGKK 191659Z 1918/2024 05013KT 9999 BKN020 TEMPO 1918/2021 6000 SHRA BKN014 PROB30 TEMPO 1920/2016 04016G26KT 4000 +SHRA BKN008 BECMG 2021/2024 07003KT TEMPO 2021/2024 5000 BR BKN007

This route has never been flown.

Route map